Terminal Aerodrome Forecast
Issued by NWS

Home | Current Version | Previous Version | Graphics & Text | Print | Product List | Glossary On
Versions: 1 2 3 4 5 6 7 8 9 10 11 12 13 14 15 16 17 18
000
FTUS43 KMPX 141707 AAB
TAFAXN
TAF AMD
KAXN 141707Z 1417/1512 04006KT P6SM OVC021
     FM142100 04005KT P6SM BKN035
     FM150100 08003KT P6SM SKC
      TEMPO 1508/1512 1 1/2SM BR BKN004=

USA.gov is the U.S. government's official web portal to all federal, state and local government web resources and services.